createdAt,value
2024-05-09T00:04:54.154Z,58.84
2024-05-09T00:09:57.126Z,58.28
2024-05-09T00:15:00.125Z,57.17
2024-05-09T00:20:10.914Z,55.89
2024-05-09T00:25:17.386Z,53.54
2024-05-09T00:30:28.010Z,51.76
2024-05-09T00:35:36.713Z,50.73
2024-05-09T00:40:42.343Z,50.26
2024-05-09T00:45:47.550Z,48.82
2024-05-09T00:50:51.637Z,48.66
2024-05-09T00:55:55.475Z,47.34
2024-05-09T01:01:01.641Z,46.91
2024-05-09T01:06:06.543Z,46.87
2024-05-09T01:11:09.955Z,46.47
2024-05-09T01:16:14.416Z,45.86
2024-05-09T01:21:17.842Z,44.58
2024-05-09T01:26:21.611Z,44.73
2024-05-09T01:31:26.582Z,44.77
2024-05-09T01:36:30.323Z,43.93
2024-05-09T01:41:33.550Z,43.43
2024-05-09T01:46:36.569Z,43.61
2024-05-09T01:51:40.530Z,42.30
2024-05-09T01:56:43.731Z,42.54
2024-05-09T02:01:56.602Z,42.10
2024-05-09T02:07:01.726Z,41.86
2024-05-09T02:12:05.104Z,40.96
2024-05-09T02:17:09.456Z,41.25
2024-05-09T02:22:13.790Z,41.10
2024-05-09T02:27:16.770Z,40.69
2024-05-09T02:32:20.938Z,40.56
2024-05-09T02:37:24.566Z,40.63
2024-05-09T02:42:27.477Z,40.17
2024-05-09T02:47:30.657Z,39.70
2024-05-09T02:52:34.548Z,39.51
2024-05-09T02:57:37.528Z,39.35
2024-05-09T03:02:45.270Z,39.38
2024-05-09T03:07:49.337Z,39.38
2024-05-09T03:12:53.434Z,38.62
2024-05-09T03:17:56.544Z,38.68
2024-05-09T03:23:01.889Z,38.60
2024-05-09T03:28:05.333Z,38.08
2024-05-09T03:33:20.450Z,38.08
2024-05-09T03:38:24.370Z,37.96
2024-05-09T03:43:27.816Z,37.69
2024-05-09T03:48:35.690Z,37.36
2024-05-09T03:53:40.959Z,37.09
2024-05-09T03:58:43.965Z,37.33
2024-05-09T04:03:47.712Z,37.00
2024-05-09T04:08:52.815Z,36.89
2024-05-09T04:13:56.302Z,36.55
2024-05-09T04:18:59.843Z,36.16
2024-05-09T04:24:04.603Z,36.11
2024-05-09T04:29:08.403Z,35.99
2024-05-09T04:34:12.404Z,35.91
2024-05-09T04:39:15.883Z,35.93
2024-05-09T04:44:18.852Z,35.40
2024-05-09T04:49:22.256Z,35.64
2024-05-09T04:54:33.840Z,35.22
2024-05-09T04:59:39.721Z,34.61
2024-05-09T05:04:43.871Z,34.60
2024-05-09T05:09:46.974Z,34.77
2024-05-09T05:14:50.038Z,34.69
2024-05-09T05:19:55.688Z,34.26
2024-05-09T05:24:58.870Z,33.86
2024-05-09T05:30:01.824Z,33.65
2024-05-09T05:35:07.452Z,33.47
2024-05-09T05:40:14.629Z,33.61
2024-05-09T05:45:21.055Z,33.29
2024-05-09T05:50:32.431Z,32.92
2024-05-09T05:55:42.336Z,31.78
2024-05-09T06:00:45.622Z,31.77
2024-05-09T06:05:48.852Z,31.44
2024-05-09T06:10:52.639Z,31.07
2024-05-09T06:15:55.591Z,31.10
2024-05-09T06:20:59.557Z,30.79
2024-05-09T06:26:03.146Z,30.62
2024-05-09T06:31:07.127Z,31.02
2024-05-09T06:36:10.455Z,30.69
2024-05-09T06:41:13.552Z,30.52
2024-05-09T06:46:16.399Z,30.60
2024-05-09T06:51:19.487Z,30.67
2024-05-09T06:56:23.940Z,30.29
2024-05-09T07:01:26.950Z,29.97
2024-05-09T07:06:30.467Z,30.21
2024-05-09T07:11:34.183Z,29.75
2024-05-09T07:16:37.166Z,29.79
2024-05-09T07:21:40.534Z,30.05
2024-05-09T07:26:43.633Z,29.56
2024-05-09T07:31:46.640Z,28.96
2024-05-09T07:36:50.153Z,28.77
2024-05-09T07:41:53.121Z,28.67
2024-05-09T07:48:14.001Z,28.28
2024-05-09T07:57:25.276Z,28.10
2024-05-09T08:02:29.245Z,27.68
2024-05-09T08:07:35.630Z,27.12
2024-05-09T08:12:38.662Z,26.75
2024-05-09T08:17:41.625Z,26.05
2024-05-09T08:22:45.041Z,26.29
2024-05-09T08:27:48.479Z,25.94
2024-05-09T08:32:51.901Z,25.95
2024-05-09T08:37:55.494Z,25.27
2024-05-09T08:42:58.716Z,24.80
2024-05-09T08:48:06.438Z,24.96
2024-05-09T08:53:10.583Z,24.46
2024-05-09T08:58:16.793Z,24.53
2024-05-09T09:03:23.244Z,24.45
2024-05-09T09:08:27.654Z,24.63
2024-05-09T09:13:30.857Z,24.41
2024-05-09T09:18:34.826Z,23.98
2024-05-09T09:23:40.338Z,23.88
2024-05-09T09:28:45.298Z,24.15
2024-05-09T09:33:48.919Z,24.15
2024-05-09T09:38:52.879Z,23.36
2024-05-09T09:43:57.817Z,23.21
2024-05-09T09:49:01.065Z,23.14
2024-05-09T09:54:05.574Z,23.08
2024-05-09T09:59:09.010Z,23.33
2024-05-09T10:04:13.482Z,23.13
2024-05-09T10:09:18.710Z,23.22
2024-05-09T10:14:22.466Z,23.50
2024-05-09T10:19:28.861Z,23.09
2024-05-09T10:24:51.987Z,23.30
2024-05-09T10:29:59.841Z,23.66
2024-05-09T10:35:07.648Z,24.20
2024-05-09T10:40:23.353Z,24.14
2024-05-09T10:45:32.375Z,24.10
2024-05-09T10:50:36.145Z,23.92
2024-05-09T10:55:39.844Z,24.11
2024-05-09T11:00:43.174Z,24.14
2024-05-09T11:05:48.394Z,24.66
2024-05-09T11:10:54.033Z,24.68
2024-05-09T11:15:57.906Z,24.79
2024-05-09T11:21:01.532Z,25.12
2024-05-09T11:26:04.798Z,25.22
2024-05-09T11:31:11.157Z,24.84
2024-05-09T11:36:15.053Z,24.41
2024-05-09T11:41:21.361Z,24.36
2024-05-09T11:46:25.375Z,24.04
2024-05-09T11:51:29.828Z,24.00
2024-05-09T11:56:33.855Z,24.52
2024-05-09T12:01:36.997Z,24.25
2024-05-09T12:06:41.472Z,24.51
2024-05-09T12:11:44.801Z,24.58
2024-05-09T12:16:48.088Z,24.72
2024-05-09T12:21:51.777Z,24.26
2024-05-09T12:26:56.175Z,24.35
2024-05-09T12:31:59.625Z,24.48
2024-05-09T12:37:03.561Z,23.95
2024-05-09T12:42:09.771Z,23.68
2024-05-09T12:47:15.302Z,24.41
2024-05-09T12:52:18.969Z,24.48
2024-05-09T12:57:23.726Z,25.11
2024-05-09T13:02:27.428Z,24.83
2024-05-09T13:07:32.590Z,24.51
2024-05-09T13:12:36.794Z,24.67
2024-05-09T13:17:40.327Z,25.04
2024-05-09T13:22:45.576Z,25.33
2024-05-09T13:27:49.419Z,26.01
2024-05-09T13:32:54.885Z,26.05
2024-05-09T13:38:00.136Z,26.75
2024-05-09T13:43:06.130Z,27.26
2024-05-09T13:48:11.188Z,27.52
2024-05-09T13:53:15.629Z,27.58
2024-05-09T13:58:19.440Z,28.45
2024-05-09T14:03:23.586Z,28.82
2024-05-09T14:08:28.251Z,29.19
2024-05-09T14:13:31.350Z,29.35
2024-05-09T14:18:35.535Z,29.70
2024-05-09T14:23:39.394Z,29.93
2024-05-09T14:28:42.877Z,30.19
2024-05-09T14:33:46.848Z,30.63
2024-05-09T14:38:50.894Z,30.64
2024-05-09T14:43:54.915Z,30.77
2024-05-09T14:49:00.572Z,31.07
2024-05-09T14:54:05.026Z,31.05
2024-05-09T14:59:08.945Z,31.01
2024-05-09T15:04:14.068Z,31.08
2024-05-09T15:09:17.857Z,31.20
2024-05-09T15:14:20.926Z,31.44
2024-05-09T15:19:24.206Z,31.62
2024-05-09T15:24:28.418Z,31.70
2024-05-09T15:29:32.485Z,31.82
2024-05-09T15:34:35.541Z,31.93
2024-05-09T15:39:39.897Z,32.08
2024-05-09T15:44:42.928Z,32.17
2024-05-09T15:49:48.042Z,31.87
2024-05-09T15:54:51.058Z,31.83
2024-05-09T15:59:54.583Z,31.57
2024-05-09T16:04:58.836Z,31.75
2024-05-09T16:10:02.490Z,31.71
2024-05-09T16:15:07.110Z,31.84
2024-05-09T16:20:15.151Z,31.92
2024-05-09T16:25:21.967Z,31.96
2024-05-09T16:30:31.732Z,31.94
2024-05-09T16:35:40.023Z,32.09
2024-05-09T16:40:42.974Z,32.27
2024-05-09T16:45:46.006Z,32.42
2024-05-09T16:50:50.532Z,32.54
2024-05-09T16:55:54.529Z,32.54
2024-05-09T17:00:58.601Z,32.80
2024-05-09T17:06:04.596Z,32.98
2024-05-09T17:11:07.646Z,33.33
2024-05-09T17:16:11.238Z,33.43
2024-05-09T17:21:15.703Z,33.93
2024-05-09T17:26:18.742Z,34.10
2024-05-09T17:31:21.924Z,33.99
2024-05-09T17:36:25.875Z,34.38
2024-05-09T17:41:28.793Z,34.48
2024-05-09T17:46:31.704Z,34.50
2024-05-09T17:51:36.348Z,34.89
2024-05-09T17:56:39.334Z,35.14
2024-05-09T18:01:42.511Z,35.18
2024-05-09T18:06:47.443Z,35.09
2024-05-09T18:11:51.115Z,35.37
2024-05-09T18:16:54.311Z,35.56
2024-05-09T18:21:57.598Z,35.50
2024-05-09T18:27:00.628Z,35.76
2024-05-09T18:32:04.158Z,35.61
2024-05-09T18:37:07.493Z,35.48
2024-05-09T18:42:10.533Z,35.63
2024-05-09T18:47:15.977Z,35.86
2024-05-09T18:52:21.850Z,35.94
2024-05-09T18:57:25.675Z,36.22
2024-05-09T19:02:29.388Z,36.33
2024-05-09T19:07:33.295Z,36.39
2024-05-09T19:12:36.476Z,36.50
2024-05-09T19:17:39.450Z,36.63
2024-05-09T19:22:42.449Z,36.52
2024-05-09T19:27:46.313Z,36.63
2024-05-09T19:32:49.350Z,36.44
2024-05-09T19:37:53.600Z,36.36
2024-05-09T19:42:56.761Z,36.28
2024-05-09T19:47:59.816Z,36.52
2024-05-09T19:53:03.322Z,36.89
2024-05-09T19:58:07.902Z,37.29
2024-05-09T20:03:12.739Z,37.40
2024-05-09T20:08:16.912Z,37.76
2024-05-09T20:13:20.118Z,37.89
2024-05-09T20:18:23.361Z,38.26
2024-05-09T20:23:26.831Z,38.12
2024-05-09T20:28:30.482Z,38.18
2024-05-09T20:33:33.715Z,38.12
2024-05-09T20:38:37.633Z,38.01
2024-05-09T20:43:40.585Z,38.08
2024-05-09T20:48:43.784Z,38.29
2024-05-09T20:53:47.619Z,38.31
2024-05-09T20:58:50.694Z,38.10
2024-05-09T21:03:53.670Z,38.04
2024-05-09T21:08:58.839Z,38.16
2024-05-09T21:14:01.669Z,37.75
2024-05-09T21:19:05.316Z,38.09
2024-05-09T21:24:09.206Z,38.03
2024-05-09T21:29:12.522Z,38.22
2024-05-09T21:34:15.726Z,38.64
2024-05-09T21:39:18.857Z,38.45
2024-05-09T21:44:22.498Z,38.62
2024-05-09T21:49:26.056Z,38.45
2024-05-09T21:54:30.815Z,38.64
2024-05-09T21:59:34.341Z,38.75
2024-05-09T22:04:37.601Z,39.13
2024-05-09T22:09:45.729Z,39.17
2024-05-09T22:14:48.736Z,39.20
2024-05-09T22:19:51.954Z,39.16
2024-05-09T22:24:55.910Z,39.17
2024-05-09T22:29:58.925Z,38.99
2024-05-09T22:35:02.294Z,39.12
2024-05-09T22:40:14.862Z,39.30
2024-05-09T22:45:20.646Z,39.41
2024-05-09T22:50:27.056Z,38.88
2024-05-09T22:55:35.413Z,38.90
2024-05-09T23:00:38.575Z,38.74
2024-05-09T23:05:42.172Z,39.02
2024-05-09T23:10:45.193Z,38.73
2024-05-09T23:15:49.070Z,38.95
2024-05-09T23:20:53.074Z,38.73
2024-05-09T23:25:56.107Z,38.50
2024-05-09T23:30:59.598Z,38.37
2024-05-09T23:36:03.180Z,38.23
2024-05-09T23:41:07.103Z,37.91
2024-05-09T23:46:11.308Z,37.66
2024-05-09T23:51:15.804Z,37.40
2024-05-09T23:56:21.520Z,37.18
